createdAt,value
2018-11-23T00:00:17.600Z,0.00
2018-11-23T00:01:17.596Z,0.00
2018-11-23T00:02:17.628Z,0.00
2018-11-23T00:03:17.573Z,0.00
2018-11-23T00:04:17.555Z,0.00
2018-11-23T00:05:17.541Z,0.00
2018-11-23T00:06:17.627Z,0.00
2018-11-23T00:07:17.550Z,0.00
2018-11-23T00:08:17.519Z,0.00
2018-11-23T00:09:17.538Z,0.00
2018-11-23T00:10:17.502Z,0.00
2018-11-23T00:11:17.500Z,0.00
2018-11-23T00:12:17.527Z,0.00
2018-11-23T00:13:17.470Z,0.00
2018-11-23T00:14:17.455Z,0.00
2018-11-23T00:15:17.469Z,0.00
2018-11-23T00:16:17.425Z,0.00
2018-11-23T00:17:17.439Z,0.00
2018-11-23T00:18:17.399Z,0.00
2018-11-23T00:19:17.388Z,0.00
2018-11-23T00:20:17.375Z,0.00
2018-11-23T00:21:17.439Z,0.00
2018-11-23T00:22:17.387Z,0.00
2018-11-23T00:23:17.349Z,0.00
2018-11-23T00:24:17.350Z,0.00
2018-11-23T00:25:17.321Z,0.00
2018-11-23T00:26:17.339Z,0.00
2018-11-23T00:27:17.407Z,0.00
2018-11-23T00:28:17.320Z,0.00
2018-11-23T00:29:17.280Z,0.00
2018-11-23T00:30:17.273Z,0.00
2018-11-23T00:31:17.259Z,0.00
2018-11-23T00:32:17.276Z,0.00
2018-11-23T00:33:17.232Z,0.00
2018-11-23T00:34:17.240Z,0.00
2018-11-23T00:35:17.258Z,0.00
2018-11-23T00:36:17.216Z,0.00
2018-11-23T00:37:17.228Z,0.00
2018-11-23T00:38:17.178Z,0.00
2018-11-23T00:39:17.175Z,0.00
2018-11-23T00:40:17.171Z,0.00
2018-11-23T00:41:17.160Z,0.00
2018-11-23T00:42:17.233Z,0.00
2018-11-23T00:43:17.165Z,0.00
2018-11-23T00:44:17.134Z,0.00
2018-11-23T00:45:17.120Z,0.00
2018-11-23T00:46:17.113Z,0.00
2018-11-23T00:47:17.138Z,0.00
2018-11-23T00:48:17.079Z,0.00
2018-11-23T00:49:17.093Z,0.00
2018-11-23T00:50:17.050Z,0.00
2018-11-23T00:51:17.044Z,0.00
2018-11-23T00:52:17.100Z,0.00
2018-11-23T00:53:17.025Z,0.00
2018-11-23T00:54:17.047Z,0.00
2018-11-23T00:55:17.022Z,0.00
2018-11-23T00:56:16.986Z,0.00
2018-11-23T00:57:17.014Z,0.00
2018-11-23T00:58:16.965Z,0.00
2018-11-23T00:59:16.973Z,0.00
2018-11-23T01:00:17.013Z,0.00
2018-11-23T01:01:16.954Z,0.00
2018-11-23T01:02:16.953Z,0.00
2018-11-23T01:03:16.922Z,0.00
2018-11-23T01:04:16.902Z,0.00
2018-11-23T01:05:16.895Z,0.00
2018-11-23T01:06:16.940Z,0.00
2018-11-23T01:07:16.893Z,0.00
2018-11-23T01:08:16.861Z,0.00
2018-11-23T01:09:16.895Z,0.00
2018-11-23T01:10:16.839Z,0.00
2018-11-23T01:11:16.831Z,0.00
2018-11-23T01:12:16.842Z,0.00
2018-11-23T01:13:16.814Z,0.00
2018-11-23T01:14:16.811Z,0.00
2018-11-23T01:15:16.779Z,0.00
2018-11-23T01:16:16.791Z,0.00
2018-11-23T01:17:16.800Z,0.00
2018-11-23T01:18:16.745Z,0.00
2018-11-23T01:19:16.758Z,0.00
2018-11-23T01:20:16.768Z,0.00
2018-11-23T01:21:16.705Z,0.00
2018-11-23T01:22:16.703Z,0.00
2018-11-23T01:23:16.712Z,0.00
2018-11-23T01:24:16.737Z,0.00
2018-11-23T01:25:16.691Z,0.00
2018-11-23T01:26:16.670Z,0.00
2018-11-23T01:27:16.658Z,0.00
2018-11-23T01:28:16.673Z,0.00
2018-11-23T01:29:16.621Z,0.00
2018-11-23T01:30:16.622Z,0.00
2018-11-23T01:31:16.636Z,0.00
2018-11-23T01:32:16.608Z,0.00
2018-11-23T01:33:16.597Z,0.00
2018-11-23T01:34:16.562Z,0.00
2018-11-23T01:35:16.553Z,0.00
2018-11-23T01:36:16.575Z,0.00
2018-11-23T01:37:16.535Z,0.00
2018-11-23T01:38:16.585Z,0.00
2018-11-23T01:39:16.509Z,0.00
2018-11-23T01:40:16.499Z,0.00
2018-11-23T01:41:16.487Z,0.00
2018-11-23T01:42:16.541Z,0.00
2018-11-23T01:43:16.516Z,0.00
2018-11-23T01:44:16.469Z,0.00
2018-11-23T01:45:16.462Z,0.00
2018-11-23T01:46:16.454Z,0.00
2018-11-23T01:47:16.462Z,0.00
2018-11-23T01:48:16.442Z,0.00
2018-11-23T01:49:16.407Z,0.00
2018-11-23T01:50:16.391Z,0.00
2018-11-23T01:51:16.384Z,0.00
2018-11-23T01:52:16.395Z,0.00
2018-11-23T01:53:16.390Z,0.00
2018-11-23T01:54:16.387Z,0.00
2018-11-23T01:55:16.343Z,0.00
2018-11-23T01:56:16.323Z,0.00
2018-11-23T01:57:16.318Z,0.00
2018-11-23T01:58:16.330Z,0.00
2018-11-23T01:59:16.315Z,0.00
2018-11-23T02:00:16.311Z,0.00
2018-11-23T02:01:16.277Z,0.00
2018-11-23T02:02:16.273Z,0.00
2018-11-23T02:03:16.292Z,0.00
2018-11-23T02:04:16.234Z,0.00
2018-11-23T02:05:16.222Z,0.00
2018-11-23T02:06:16.228Z,0.00
2018-11-23T02:07:16.217Z,0.00
2018-11-23T02:08:16.288Z,0.00
2018-11-23T02:09:16.192Z,0.00
2018-11-23T02:10:16.172Z,0.00
2018-11-23T02:11:16.163Z,0.00
2018-11-23T02:12:16.158Z,0.00
2018-11-23T02:13:16.167Z,0.00
2018-11-23T02:14:16.127Z,0.00
2018-11-23T02:15:16.117Z,0.00
2018-11-23T02:16:16.148Z,0.00
2018-11-23T02:17:16.123Z,0.00
2018-11-23T02:18:16.116Z,0.00
2018-11-23T02:19:16.071Z,0.00
2018-11-23T02:20:16.070Z,0.00
2018-11-23T02:21:16.064Z,0.00
2018-11-23T02:22:16.090Z,0.00
2018-11-23T02:23:16.050Z,0.00
2018-11-23T02:24:16.045Z,0.00
2018-11-23T02:25:16.015Z,0.00
2018-11-23T02:26:15.996Z,0.00
2018-11-23T02:27:15.981Z,0.00
2018-11-23T02:28:16.041Z,0.00
2018-11-23T02:29:15.961Z,0.00
2018-11-23T02:30:15.979Z,0.00
2018-11-23T02:31:15.938Z,0.00
2018-11-23T02:32:15.929Z,0.00
2018-11-23T02:33:15.963Z,0.00
2018-11-23T02:34:15.905Z,0.00
2018-11-23T02:35:15.928Z,0.00
2018-11-23T02:36:15.881Z,0.00
2018-11-23T02:37:15.873Z,0.00
2018-11-23T02:38:15.887Z,0.00
2018-11-23T02:39:15.862Z,0.00
2018-11-23T02:40:15.839Z,0.00
2018-11-23T02:41:15.870Z,0.00
2018-11-23T02:42:15.828Z,0.00
2018-11-23T02:43:15.848Z,0.00
2018-11-23T02:44:15.794Z,0.00
2018-11-23T02:45:15.780Z,0.00
2018-11-23T02:46:15.771Z,0.00
2018-11-23T02:47:15.775Z,0.00
2018-11-23T02:48:15.819Z,0.00
2018-11-23T02:49:15.742Z,0.00
2018-11-23T02:50:15.732Z,0.00
2018-11-23T02:51:15.722Z,0.00
2018-11-23T02:52:15.706Z,0.00
2018-11-23T02:53:15.726Z,0.00
2018-11-23T02:54:15.741Z,0.00
2018-11-23T02:55:15.676Z,0.00
2018-11-23T02:56:15.671Z,0.00
2018-11-23T02:57:15.653Z,0.00
2018-11-23T02:58:15.647Z,0.00
2018-11-23T02:59:15.686Z,0.00
2018-11-23T03:00:15.634Z,0.00
2018-11-23T03:01:15.676Z,0.00
2018-11-23T03:02:15.599Z,0.00
2018-11-23T03:03:15.597Z,0.00
2018-11-23T03:04:15.610Z,0.00
2018-11-23T03:05:15.567Z,0.00
2018-11-23T03:06:15.559Z,0.00
2018-11-23T03:07:15.543Z,0.00
2018-11-23T03:08:15.686Z,0.00
2018-11-23T03:09:15.551Z,0.00
2018-11-23T03:10:15.510Z,0.00
2018-11-23T03:11:15.500Z,0.00
2018-11-23T03:12:15.487Z,0.00
2018-11-23T03:13:15.483Z,0.00
2018-11-23T03:14:15.624Z,0.00
2018-11-23T03:15:15.467Z,0.00
2018-11-23T03:16:15.456Z,0.00
2018-11-23T03:17:15.458Z,0.00
2018-11-23T03:18:15.425Z,0.00
2018-11-23T03:19:15.461Z,0.00
2018-11-23T03:20:15.400Z,0.00
2018-11-23T03:21:15.457Z,0.00
2018-11-23T03:22:15.385Z,0.00
2018-11-23T03:23:15.382Z,0.00
2018-11-23T03:24:15.417Z,0.00
2018-11-23T03:25:15.353Z,0.00
2018-11-23T03:26:15.336Z,0.00
2018-11-23T03:27:15.523Z,0.00
2018-11-23T03:28:15.322Z,0.00
2018-11-23T03:29:15.336Z,0.00
2018-11-23T03:30:15.296Z,0.00
2018-11-23T03:31:15.280Z,0.00
2018-11-23T03:32:15.271Z,0.00
2018-11-23T03:33:15.289Z,0.00
2018-11-23T03:34:15.284Z,0.00
2018-11-23T03:35:15.266Z,0.00
2018-11-23T03:36:15.229Z,0.00
2018-11-23T03:37:15.225Z,0.00
2018-11-23T03:38:15.218Z,0.00
2018-11-23T03:39:15.243Z,0.00
2018-11-23T03:40:15.197Z,0.00
2018-11-23T03:41:15.235Z,0.00
2018-11-23T03:42:15.173Z,0.00
2018-11-23T03:43:15.151Z,0.00
2018-11-23T03:44:15.216Z,0.00
2018-11-23T03:45:15.163Z,0.00
2018-11-23T03:46:15.748Z,0.00
2018-11-23T03:47:15.116Z,0.00
2018-11-23T03:48:15.095Z,0.00
2018-11-23T03:49:15.186Z,0.00
2018-11-23T03:50:15.086Z,0.00
2018-11-23T03:51:15.097Z,0.00
2018-11-23T03:52:15.072Z,0.00
2018-11-23T03:53:15.048Z,0.00
2018-11-23T03:54:15.079Z,0.00
2018-11-23T03:55:15.106Z,0.00
2018-11-23T03:56:15.008Z,0.00
2018-11-23T03:57:15.010Z,0.00
2018-11-23T03:58:15.005Z,0.00
2018-11-23T03:59:15.022Z,0.00
2018-11-23T04:00:17.331Z,0.00
2018-11-23T04:01:14.957Z,0.00
2018-11-23T04:02:14.950Z,0.00
2018-11-23T04:03:14.948Z,0.00
2018-11-23T04:04:15.040Z,0.00
2018-11-23T04:05:14.909Z,0.00
2018-11-23T04:06:14.900Z,0.00
2018-11-23T04:07:14.900Z,0.00
2018-11-23T04:08:14.943Z,0.00
2018-11-23T04:09:14.895Z,0.00
2018-11-23T04:10:14.905Z,0.00
2018-11-23T04:11:14.845Z,0.00
2018-11-23T04:12:14.847Z,0.00
2018-11-23T04:13:14.835Z,0.00
2018-11-23T04:14:14.858Z,0.00
2018-11-23T04:15:14.801Z,0.00
2018-11-23T04:16:14.854Z,0.00
2018-11-23T04:17:14.792Z,0.00
2018-11-23T04:18:14.766Z,0.00
2018-11-23T04:19:14.784Z,0.00
2018-11-23T04:20:14.759Z,0.00
2018-11-23T04:21:14.751Z,0.00
2018-11-23T04:22:14.746Z,0.00
2018-11-23T04:23:14.802Z,0.00
2018-11-23T04:24:14.807Z,0.00
2018-11-23T04:25:14.697Z,0.00
2018-11-23T04:26:14.691Z,0.00
2018-11-23T04:27:14.685Z,0.00
2018-11-23T04:28:14.680Z,0.00
2018-11-23T04:29:14.650Z,0.00
2018-11-23T04:30:14.699Z,0.00
2018-11-23T04:31:14.635Z,0.00
2018-11-23T04:32:14.616Z,0.00
2018-11-23T04:33:14.638Z,0.00
2018-11-23T04:34:14.594Z,0.00
2018-11-23T04:35:14.623Z,0.00
2018-11-23T04:36:14.634Z,0.00
2018-11-23T04:37:14.573Z,0.00
2018-11-23T04:38:14.559Z,0.00
2018-11-23T04:39:14.555Z,0.00
2018-11-23T04:40:14.553Z,0.00
2018-11-23T04:41:14.539Z,0.00
2018-11-23T04:42:14.509Z,0.00
2018-11-23T04:43:14.504Z,0.00
2018-11-23T04:44:14.553Z,0.00
2018-11-23T04:45:14.511Z,0.00
2018-11-23T04:46:14.473Z,0.00
2018-11-23T04:47:14.473Z,0.00
2018-11-23T04:48:14.469Z,0.00
2018-11-23T04:49:14.437Z,0.00
2018-11-23T04:50:14.524Z,0.00
2018-11-23T04:51:14.419Z,0.00
2018-11-23T04:52:14.408Z,0.00
2018-11-23T04:53:14.394Z,0.00
2018-11-23T04:54:14.374Z,0.00
2018-11-23T04:55:14.425Z,0.00
2018-11-23T04:56:14.384Z,0.00
2018-11-23T04:57:14.347Z,0.00
2018-11-23T04:58:14.356Z,0.00
2018-11-23T04:59:14.343Z,0.00
2018-11-23T05:00:14.384Z,0.00
2018-11-23T05:01:14.313Z,0.00
2018-11-23T05:02:14.336Z,0.00
2018-11-23T05:03:14.335Z,0.00
2018-11-23T05:04:14.272Z,0.00
2018-11-23T05:05:14.311Z,0.00
2018-11-23T05:06:14.260Z,0.00
2018-11-23T05:07:14.236Z,0.00
2018-11-23T05:08:14.227Z,0.00
2018-11-23T05:09:14.224Z,0.00
2018-11-23T05:10:14.251Z,0.00
2018-11-23T05:11:14.340Z,0.00
2018-11-23T05:12:14.199Z,0.00
2018-11-23T05:13:14.193Z,0.00
2018-11-23T05:14:14.165Z,0.00
2018-11-23T05:15:14.195Z,0.00
2018-11-23T05:16:14.138Z,0.00
2018-11-23T05:17:14.132Z,0.00
2018-11-23T05:18:14.145Z,0.00
2018-11-23T05:19:14.120Z,0.00
2018-11-23T05:20:14.127Z,0.00
2018-11-23T05:21:14.114Z,0.00
2018-11-23T05:22:14.079Z,0.00
2018-11-23T05:23:14.066Z,0.00
2018-11-23T05:24:14.061Z,0.00
2018-11-23T05:25:14.079Z,0.00
2018-11-23T05:26:14.058Z,0.00
2018-11-23T05:27:14.014Z,0.00
2018-11-23T05:28:14.013Z,0.00
2018-11-23T05:29:13.992Z,0.00
2018-11-23T05:30:14.025Z,0.00
2018-11-23T05:31:13.982Z,0.00
2018-11-23T05:32:13.991Z,0.00
2018-11-23T05:33:14.054Z,0.00
2018-11-23T05:34:13.944Z,0.00
2018-11-23T05:35:14.040Z,0.00
2018-11-23T05:36:13.926Z,0.00
2018-11-23T05:37:13.909Z,0.00
2018-11-23T05:38:13.896Z,0.00
2018-11-23T05:39:13.921Z,0.00
2018-11-23T05:40:13.904Z,0.00
2018-11-23T05:41:13.866Z,0.00
2018-11-23T05:42:13.851Z,0.00
2018-11-23T05:43:13.877Z,0.00
2018-11-23T05:44:13.835Z,0.00
2018-11-23T05:45:13.847Z,0.00
2018-11-23T05:46:13.832Z,0.00
2018-11-23T05:47:13.796Z,0.00
2018-11-23T05:48:13.783Z,0.00
2018-11-23T05:49:13.801Z,0.00
2018-11-23T05:50:13.818Z,0.00
2018-11-23T05:51:14.034Z,0.00
2018-11-23T05:52:13.745Z,0.00
2018-11-23T05:53:13.765Z,0.00
2018-11-23T05:54:13.729Z,0.00
2018-11-23T05:55:13.835Z,0.00
2018-11-23T05:56:13.713Z,0.00
2018-11-23T05:57:13.692Z,0.00
2018-11-23T05:58:13.682Z,0.00
2018-11-23T05:59:13.803Z,0.00
2018-11-23T06:00:13.705Z,0.00
2018-11-23T06:01:13.675Z,0.00
2018-11-23T06:02:13.683Z,0.00
2018-11-23T06:03:13.638Z,0.00
2018-11-23T06:04:13.616Z,0.00
2018-11-23T06:05:13.601Z,0.00
2018-11-23T06:06:13.690Z,0.00
2018-11-23T06:07:13.647Z,0.00
2018-11-23T06:08:13.666Z,0.00
2018-11-23T06:09:13.557Z,0.00
2018-11-23T06:10:13.556Z,0.00
2018-11-23T06:11:13.563Z,0.00
2018-11-23T06:12:13.562Z,0.00
2018-11-23T06:13:13.523Z,0.00
2018-11-23T06:14:13.504Z,0.00
2018-11-23T06:15:13.539Z,0.00
2018-11-23T06:16:13.534Z,0.00
2018-11-23T06:17:13.468Z,0.00
2018-11-23T06:18:13.457Z,0.00
2018-11-23T06:19:13.451Z,0.00
2018-11-23T06:20:13.455Z,0.00
2018-11-23T06:21:13.456Z,0.00
2018-11-23T06:22:13.418Z,0.00
2018-11-23T06:23:13.401Z,0.00
2018-11-23T06:24:13.400Z,0.00
2018-11-23T06:25:13.380Z,0.00
2018-11-23T06:26:13.407Z,0.00
2018-11-23T06:27:13.371Z,0.00
2018-11-23T06:28:13.347Z,4.00
2018-11-23T06:29:13.364Z,0.00
2018-11-23T06:30:13.349Z,0.00
2018-11-23T06:31:13.357Z,0.00
2018-11-23T06:32:13.334Z,4.00
2018-11-23T06:33:13.295Z,0.00
2018-11-23T06:34:13.285Z,4.00
2018-11-23T06:35:13.295Z,0.00
2018-11-23T06:36:13.286Z,4.00
2018-11-23T06:37:13.250Z,4.00
2018-11-23T06:38:13.285Z,8.00
2018-11-23T06:39:13.247Z,8.00
2018-11-23T06:40:13.221Z,8.00
2018-11-23T06:41:13.254Z,8.00
2018-11-23T06:42:13.202Z,8.00
2018-11-23T06:43:13.209Z,12.00
2018-11-23T06:44:13.175Z,12.00
2018-11-23T06:45:13.181Z,12.00
2018-11-23T06:46:13.179Z,16.00
2018-11-23T06:47:13.175Z,20.00
2018-11-23T06:48:13.140Z,20.00
2018-11-23T06:49:13.143Z,24.00
2018-11-23T06:50:13.138Z,28.00
2018-11-23T06:51:13.136Z,28.00
2018-11-23T06:52:13.092Z,32.00
2018-11-23T06:53:13.088Z,36.00
2018-11-23T06:54:14.490Z,40.00
2018-11-23T06:55:13.068Z,44.00
2018-11-23T06:56:13.079Z,48.00
2018-11-23T06:57:13.058Z,52.00
2018-11-23T06:58:13.032Z,60.00
2018-11-23T06:59:13.019Z,64.00
2018-11-23T07:00:13.012Z,72.00
2018-11-23T07:01:12.992Z,76.00
2018-11-23T07:02:13.030Z,80.00
2018-11-23T07:03:12.966Z,84.00
2018-11-23T07:04:12.970Z,92.00
2018-11-23T07:05:12.945Z,100.00
2018-11-23T07:06:12.952Z,104.00
2018-11-23T07:07:12.971Z,112.00
2018-11-23T07:08:12.983Z,120.00
2018-11-23T07:09:12.913Z,128.00
2018-11-23T07:10:12.895Z,132.00
2018-11-23T07:11:12.894Z,140.00
2018-11-23T07:12:12.912Z,156.00
2018-11-23T07:13:12.870Z,160.00
2018-11-23T07:14:12.876Z,172.00
2018-11-23T07:15:12.842Z,180.00
2018-11-23T07:16:12.894Z,192.00
2018-11-23T07:17:12.851Z,200.00
2018-11-23T07:18:12.803Z,212.00
2018-11-23T07:19:12.808Z,220.00
2018-11-23T07:20:12.796Z,236.00
2018-11-23T07:21:12.777Z,244.00
2018-11-23T07:22:12.871Z,260.00
2018-11-23T07:23:12.749Z,272.00
2018-11-23T07:24:12.740Z,284.00
2018-11-23T07:25:12.747Z,296.00
2018-11-23T07:26:12.714Z,308.00
2018-11-23T07:27:12.759Z,320.00
2018-11-23T07:28:15.616Z,340.00
2018-11-23T07:29:12.687Z,352.00
2018-11-23T07:30:12.707Z,368.00
2018-11-23T07:31:12.661Z,384.00
2018-11-23T07:32:12.697Z,400.00
2018-11-23T07:33:12.638Z,420.00
2018-11-23T07:34:12.629Z,460.00
2018-11-23T07:35:12.627Z,544.00
2018-11-23T07:36:12.664Z,640.00
2018-11-23T07:37:12.624Z,688.00
2018-11-23T07:38:12.588Z,716.00
2018-11-23T07:39:12.576Z,740.00
2018-11-23T07:40:12.565Z,760.00
2018-11-23T07:41:12.571Z,788.00
2018-11-23T07:42:12.666Z,808.00
2018-11-23T07:43:12.530Z,824.00
2018-11-23T07:44:12.518Z,832.00
2018-11-23T07:45:12.518Z,844.00
2018-11-23T07:46:12.503Z,852.00
2018-11-23T07:47:12.517Z,864.00
2018-11-23T07:48:12.508Z,888.00
2018-11-23T07:49:12.463Z,920.00
2018-11-23T07:50:12.458Z,964.00
2018-11-23T07:51:12.441Z,1016.00
2018-11-23T07:52:12.472Z,1080.00
2018-11-23T07:53:12.420Z,1156.00
2018-11-23T07:54:12.435Z,1252.00
2018-11-23T07:55:12.404Z,1364.00
2018-11-23T07:56:12.392Z,1468.00
2018-11-23T07:57:12.402Z,1576.00
2018-11-23T07:58:12.366Z,1672.00
2018-11-23T07:59:12.360Z,1784.00
2018-11-23T08:00:12.398Z,1884.00
2018-11-23T08:01:12.334Z,1992.00
2018-11-23T08:02:12.359Z,2132.00
2018-11-23T08:03:12.339Z,2280.00
2018-11-23T08:04:12.304Z,2412.00
2018-11-23T08:05:12.290Z,2504.00
2018-11-23T08:06:12.290Z,2652.00
2018-11-23T08:07:12.300Z,2832.00
2018-11-23T08:08:12.270Z,2972.00
2018-11-23T08:09:12.274Z,3104.00
2018-11-23T08:10:12.245Z,3228.00
2018-11-23T08:11:12.248Z,3428.00
2018-11-23T08:12:12.252Z,3584.00
2018-11-23T08:13:12.238Z,3752.00
2018-11-23T08:14:12.193Z,3872.00
2018-11-23T08:15:12.183Z,4068.00
2018-11-23T08:16:12.171Z,4292.00
2018-11-23T08:17:12.169Z,4532.00
2018-11-23T08:18:12.200Z,4776.00
2018-11-23T08:19:12.135Z,5036.00
2018-11-23T08:20:12.137Z,5276.00
2018-11-23T08:21:12.127Z,5420.00
2018-11-23T08:22:12.154Z,5576.00
2018-11-23T08:23:12.120Z,5784.00
2018-11-23T08:24:12.108Z,6012.00
2018-11-23T08:25:12.121Z,6272.00
2018-11-23T08:26:12.059Z,6388.00
2018-11-23T08:27:12.050Z,6532.00
2018-11-23T08:28:12.073Z,6672.00
2018-11-23T08:29:12.029Z,6732.00
2018-11-23T08:30:12.017Z,6888.00
2018-11-23T08:31:12.003Z,7000.00
2018-11-23T08:32:12.051Z,7244.00
2018-11-23T08:33:12.023Z,7448.00
2018-11-23T08:34:11.978Z,7652.00
2018-11-23T08:35:11.960Z,7936.00
2018-11-23T08:36:11.951Z,8236.00
2018-11-23T08:37:11.934Z,9556.00
2018-11-23T08:38:11.981Z,11208.00
2018-11-23T08:39:11.922Z,11784.00
2018-11-23T08:40:11.912Z,9876.00
2018-11-23T08:41:11.904Z,8276.00
2018-11-23T08:42:11.888Z,7188.00
2018-11-23T08:43:11.913Z,5648.00
2018-11-23T08:44:11.918Z,4924.00
2018-11-23T08:45:11.859Z,4420.00
2018-11-23T08:46:11.834Z,4008.00
2018-11-23T08:47:11.826Z,3600.00
2018-11-23T08:48:11.856Z,3216.00
2018-11-23T08:49:11.800Z,2996.00
2018-11-23T08:50:11.801Z,2932.00
2018-11-23T08:51:11.778Z,2984.00
2018-11-23T08:52:11.809Z,3056.00
2018-11-23T08:53:11.785Z,3248.00
2018-11-23T08:54:11.750Z,3556.00
2018-11-23T08:55:11.739Z,3928.00
2018-11-23T08:56:11.724Z,4368.00
2018-11-23T08:57:11.715Z,4868.00
2018-11-23T08:58:11.728Z,5440.00
2018-11-23T08:59:11.714Z,6088.00
2018-11-23T09:00:11.680Z,6712.00
2018-11-23T09:01:11.668Z,7336.00
2018-11-23T09:02:11.658Z,7920.00
2018-11-23T09:03:11.669Z,8460.00
2018-11-23T09:04:11.634Z,8968.00
2018-11-23T09:05:11.624Z,9152.00
2018-11-23T09:06:11.670Z,9332.00
2018-11-23T09:07:11.608Z,9432.00
2018-11-23T09:08:11.616Z,9528.00
2018-11-23T09:09:11.594Z,9688.00
2018-11-23T09:10:11.576Z,9828.00
2018-11-23T09:11:11.553Z,9884.00
2018-11-23T09:12:11.556Z,10008.00
2018-11-23T09:13:11.611Z,10080.00
2018-11-23T09:14:11.542Z,10128.00
2018-11-23T09:15:11.509Z,10156.00
2018-11-23T09:16:11.524Z,10204.00
2018-11-23T09:17:11.519Z,10068.00
2018-11-23T09:18:11.499Z,10200.00
2018-11-23T09:19:11.472Z,10232.00
2018-11-23T09:20:11.460Z,10104.00
2018-11-23T09:21:11.479Z,10036.00
2018-11-23T09:22:11.438Z,10072.00
2018-11-23T09:23:11.462Z,10236.00
2018-11-23T09:24:11.407Z,10256.00
2018-11-23T09:25:11.397Z,10356.00
2018-11-23T09:26:11.391Z,10548.00
2018-11-23T09:27:11.395Z,10560.00
2018-11-23T09:28:11.396Z,10828.00
2018-11-23T09:29:11.365Z,10940.00
2018-11-23T09:30:11.339Z,11156.00
2018-11-23T09:31:11.328Z,11268.00
2018-11-23T09:32:11.355Z,11220.00
2018-11-23T09:33:11.394Z,11372.00
2018-11-23T09:34:11.298Z,11416.00
2018-11-23T09:35:11.284Z,11596.00
2018-11-23T09:36:11.272Z,11740.00
2018-11-23T09:37:11.263Z,11916.00
2018-11-23T09:38:11.281Z,12080.00
2018-11-23T09:39:11.241Z,12308.00
2018-11-23T09:40:11.286Z,12484.00
2018-11-23T09:41:11.217Z,12868.00
2018-11-23T09:42:11.208Z,12952.00
2018-11-23T09:43:11.210Z,13216.00
2018-11-23T09:44:11.385Z,13152.00
2018-11-23T09:45:11.178Z,13120.00
2018-11-23T09:46:11.162Z,13216.00
2018-11-23T09:47:11.153Z,13312.00
2018-11-23T09:48:11.192Z,13248.00
2018-11-23T09:49:11.164Z,13312.00
2018-11-23T09:50:11.124Z,13376.00
2018-11-23T09:51:11.121Z,13376.00
2018-11-23T09:52:11.098Z,13376.00
2018-11-23T09:53:11.089Z,13376.00
2018-11-23T09:54:11.104Z,13312.00
2018-11-23T09:55:11.083Z,13184.00
2018-11-23T09:56:11.165Z,13312.00
2018-11-23T09:57:11.053Z,13216.00
2018-11-23T09:58:11.034Z,13376.00
2018-11-23T09:59:11.046Z,13408.00
2018-11-23T10:00:11.013Z,13280.00
2018-11-23T10:01:11.009Z,13344.00
2018-11-23T10:02:11.013Z,13344.00
2018-11-23T10:03:11.089Z,13280.00
2018-11-23T10:04:11.006Z,13280.00
2018-11-23T10:05:10.960Z,13032.00
2018-11-23T10:06:10.947Z,13004.00
2018-11-23T10:07:10.944Z,12872.00
2018-11-23T10:08:10.917Z,12992.00
2018-11-23T10:09:11.000Z,12972.00
2018-11-23T10:10:10.907Z,12932.00
2018-11-23T10:11:10.894Z,12908.00
2018-11-23T10:12:10.895Z,12952.00
2018-11-23T10:13:10.876Z,12852.00
2018-11-23T10:14:10.884Z,12864.00
2018-11-23T10:15:10.999Z,12712.00
2018-11-23T10:16:10.868Z,12564.00
2018-11-23T10:17:10.817Z,12524.00
2018-11-23T10:18:10.812Z,12524.00
2018-11-23T10:19:10.825Z,12528.00
2018-11-23T10:20:10.798Z,12452.00
2018-11-23T10:21:10.794Z,12376.00
2018-11-23T10:22:10.768Z,12344.00
2018-11-23T10:23:10.749Z,12200.00
2018-11-23T10:24:10.766Z,12040.00
2018-11-23T10:25:10.727Z,11916.00
2018-11-23T10:26:10.729Z,11708.00
2018-11-23T10:27:10.820Z,11468.00
2018-11-23T10:28:10.709Z,11312.00
2018-11-23T10:29:10.717Z,11276.00
2018-11-23T10:30:10.693Z,10904.00
2018-11-23T10:31:10.662Z,10752.00
2018-11-23T10:32:10.674Z,10484.00
2018-11-23T10:33:10.637Z,10468.00
2018-11-23T10:34:10.885Z,10124.00
2018-11-23T10:35:10.621Z,10012.00
2018-11-23T10:36:10.615Z,9812.00
2018-11-23T10:37:10.607Z,9592.00
2018-11-23T10:38:10.618Z,9268.00
2018-11-23T10:39:10.622Z,8836.00
2018-11-23T10:40:10.586Z,8256.00
2018-11-23T10:41:10.580Z,7680.00
2018-11-23T10:42:10.540Z,7000.00
2018-11-23T10:43:10.530Z,6156.00
2018-11-23T10:44:10.600Z,5532.00
2018-11-23T10:45:10.508Z,4912.00
2018-11-23T10:46:10.507Z,4076.00
2018-11-23T10:47:10.486Z,3416.00
2018-11-23T10:48:10.478Z,2988.00
2018-11-23T10:49:10.590Z,2756.00
2018-11-23T10:50:10.468Z,2596.00
2018-11-23T10:51:10.439Z,2444.00
2018-11-23T10:52:10.425Z,2360.00
2018-11-23T10:53:10.416Z,2320.00
2018-11-23T10:54:10.434Z,2304.00
2018-11-23T10:55:10.454Z,2324.00
2018-11-23T10:56:10.570Z,2380.00
2018-11-23T10:57:10.370Z,2444.00
2018-11-23T10:58:10.360Z,2532.00
2018-11-23T10:59:10.381Z,2696.00
2018-11-23T11:00:10.341Z,2932.00
2018-11-23T11:01:10.342Z,3052.00
2018-11-23T11:02:10.382Z,3192.00
2018-11-23T11:03:10.473Z,3300.00
2018-11-23T11:04:10.339Z,3356.00
2018-11-23T11:05:10.297Z,3484.00
2018-11-23T11:06:10.277Z,3660.00
2018-11-23T11:07:10.259Z,3896.00
2018-11-23T11:08:10.247Z,4292.00
2018-11-23T11:09:10.519Z,4676.00
2018-11-23T11:10:10.269Z,5112.00
2018-11-23T11:11:13.513Z,5580.00
2018-11-23T11:12:10.207Z,6032.00
2018-11-23T11:13:10.217Z,6484.00
2018-11-23T11:14:10.195Z,6948.00
2018-11-23T11:15:10.206Z,7368.00
2018-11-23T11:16:10.159Z,7856.00
2018-11-23T11:17:10.149Z,8104.00
2018-11-23T11:18:10.187Z,8640.00
2018-11-23T11:19:10.137Z,9092.00
2018-11-23T11:20:10.182Z,10792.00
2018-11-23T11:21:10.120Z,14528.00
2018-11-23T11:22:10.102Z,28896.00
2018-11-23T11:23:10.101Z,34464.00
2018-11-23T11:24:10.143Z,35008.00
2018-11-23T11:25:10.097Z,35008.00
2018-11-23T11:26:10.050Z,36032.00
2018-11-23T11:27:10.070Z,33056.00
2018-11-23T11:28:10.029Z,25152.00
2018-11-23T11:29:10.013Z,17568.00
2018-11-23T11:30:10.058Z,14880.00
2018-11-23T11:31:10.086Z,15104.00
2018-11-23T11:32:09.991Z,15264.00
2018-11-23T11:33:09.969Z,15456.00
2018-11-23T11:34:09.979Z,15488.00
2018-11-23T11:35:10.148Z,15392.00
2018-11-23T11:36:09.945Z,15808.00
2018-11-23T11:37:10.001Z,15712.00
2018-11-23T11:38:09.930Z,15712.00
2018-11-23T11:39:09.909Z,15648.00
2018-11-23T11:40:09.921Z,15680.00
2018-11-23T11:41:09.883Z,15744.00
2018-11-23T11:42:09.910Z,15680.00
2018-11-23T11:43:09.869Z,15616.00
2018-11-23T11:44:09.909Z,15456.00
2018-11-23T11:45:09.867Z,15520.00
2018-11-23T11:46:09.838Z,15456.00
2018-11-23T11:47:09.819Z,15360.00
2018-11-23T11:48:09.819Z,15360.00
2018-11-23T11:49:09.797Z,15232.00
2018-11-23T11:50:09.849Z,15104.00
2018-11-23T11:51:09.807Z,15136.00
2018-11-23T11:52:09.775Z,15072.00
2018-11-23T11:53:09.753Z,14912.00
2018-11-23T11:54:09.757Z,14720.00
2018-11-23T11:55:09.737Z,14656.00
2018-11-23T11:56:09.919Z,14464.00
2018-11-23T11:57:09.721Z,14240.00
2018-11-23T11:58:09.723Z,14272.00
2018-11-23T11:59:09.804Z,14144.00
2018-11-23T12:00:09.691Z,14080.00
2018-11-23T12:01:09.706Z,13952.00
2018-11-23T12:02:10.329Z,13792.00
2018-11-23T12:03:09.720Z,13728.00
2018-11-23T12:04:09.816Z,13568.00
2018-11-23T12:05:09.700Z,13536.00
2018-11-23T12:06:09.736Z,13504.00
2018-11-23T12:07:09.635Z,13472.00
2018-11-23T12:08:09.604Z,13376.00
2018-11-23T12:09:09.577Z,13280.00
2018-11-23T12:10:09.614Z,13184.00
2018-11-23T12:11:09.603Z,13280.00
2018-11-23T12:12:09.597Z,13184.00
2018-11-23T12:13:09.539Z,13056.00
2018-11-23T12:14:09.528Z,13024.00
2018-11-23T12:15:09.556Z,12756.00
2018-11-23T12:16:09.526Z,12776.00
2018-11-23T12:17:09.496Z,12744.00
2018-11-23T12:18:09.483Z,12680.00
2018-11-23T12:19:09.472Z,12576.00
2018-11-23T12:20:09.539Z,12528.00
2018-11-23T12:21:09.490Z,12332.00
2018-11-23T12:22:09.436Z,12316.00
2018-11-23T12:23:09.434Z,12300.00
2018-11-23T12:24:09.413Z,12156.00
2018-11-23T12:25:09.413Z,12124.00
2018-11-23T12:26:09.486Z,12080.00
2018-11-23T12:27:09.391Z,11860.00
2018-11-23T12:28:09.366Z,11824.00
2018-11-23T12:29:09.366Z,11696.00
2018-11-23T12:30:09.352Z,11416.00
2018-11-23T12:31:09.359Z,11116.00
2018-11-23T12:32:09.321Z,10768.00
2018-11-23T12:33:09.347Z,10356.00
2018-11-23T12:34:09.300Z,9896.00
2018-11-23T12:35:09.298Z,9572.00
2018-11-23T12:36:09.302Z,9240.00
2018-11-23T12:37:09.297Z,8796.00
2018-11-23T12:38:09.266Z,8580.00
2018-11-23T12:39:09.259Z,8200.00
2018-11-23T12:40:09.240Z,7992.00